To NAV CANADA Home Page Login to a new session Search on AWWS site Feedback and Comments Disclaimer Vers la page française équivalente Tips FAQ What's new on the site To the Forecasts and Observations / NOTAM section To "File a Flight Plan" website Publications and other links Update of the User's profile FIC Telephone Numbers My Weather Data Folder Route Weather Data Regional Weather Data Local Weather Data To the Forecasts and Observations / NOTAM section
Request Generated 03/04/2015 at 06:58:34 UTC . Weather information available at that time is displayed.

METAR/TAF

THUNDER BAY/ON    

SPECI CYQT 040608Z 30013G21KT 10SM -SN DRSN SCT021 OVC032 M16/M19
A2974 RMK SC4SC4 SLP087=
METAR CYQT 040600Z 30015G24KT 3SM R07/4000VP6000FT/U -SN DRSN SCT021
OVC032 M15/M19 A2974 RMK SC4SC4 SLP086=
SPECI CYQT 040549Z 30016G25KT 5SM -SN DRSN BKN032 M15/M19 A2973 RMK
SC7 SLP084=
METAR CYQT 040500Z CCA 31010G22KT 15SM DRSN SCT032 M14/M20 A2971 RMK
SC4 SLP075=
METAR CYQT 040500Z 31010G22KT 15SM SCT032 M14/M20 A2971 RMK SC4
SLP075=
METAR CYQT 040400Z 29014G24KT 15SM DRSN FEW040 M13/M20 A2969 RMK SC1
PRESRR SLP068=

TAF CYQT 040138Z 0402/0414 29010G20KT P6SM FEW030
FM041000 30010G20KT P6SM BKN030 TEMPO 0410/0414 5SM -SN
RMK NXT FCST BY 040800Z=
Your time UTC time
Weather data provided by Environment Canada and NAV CANADA